createdAt,value
2023-03-15T00:00:17.590Z,11.60
2023-03-15T00:02:45.976Z,11.50
2023-03-15T00:05:14.594Z,11.40
2023-03-15T00:07:45.189Z,11.40
2023-03-15T00:10:13.502Z,11.40
2023-03-15T00:12:42.758Z,11.20
2023-03-15T00:15:14.450Z,11.00
2023-03-15T00:17:45.133Z,10.80
2023-03-15T00:20:14.896Z,10.80
2023-03-15T00:22:44.675Z,10.70
2023-03-15T00:25:13.133Z,10.60
2023-03-15T00:27:41.494Z,10.50
2023-03-15T00:30:11.243Z,10.40
2023-03-15T00:32:39.689Z,10.10
2023-03-15T00:35:08.615Z,10.00
2023-03-15T00:37:37.732Z,9.90
2023-03-15T00:40:08.892Z,9.80
2023-03-15T00:42:37.273Z,9.80
2023-03-15T00:45:06.487Z,9.80
2023-03-15T00:47:34.952Z,9.70
2023-03-15T00:50:03.294Z,9.70
2023-03-15T00:52:37.096Z,9.70
2023-03-15T00:55:10.221Z,9.70
2023-03-15T00:57:38.792Z,9.70
2023-03-15T01:00:08.940Z,9.80
2023-03-15T01:02:38.536Z,9.80
2023-03-15T01:05:07.731Z,9.90
2023-03-15T01:07:36.329Z,10.00
2023-03-15T01:10:09.036Z,10.10
2023-03-15T01:12:37.432Z,10.00
2023-03-15T01:15:08.209Z,10.00
2023-03-15T01:17:36.665Z,10.00
2023-03-15T01:20:06.691Z,9.90
2023-03-15T01:22:36.988Z,9.90
2023-03-15T01:25:05.706Z,9.90
2023-03-15T01:27:35.862Z,9.90
2023-03-15T01:30:05.131Z,10.00
2023-03-15T01:32:34.704Z,10.10
2023-03-15T01:35:03.217Z,10.20
2023-03-15T01:37:31.581Z,10.30
2023-03-15T01:40:01.298Z,10.50
2023-03-15T01:42:33.064Z,10.60
2023-03-15T01:45:03.106Z,10.70
2023-03-15T01:47:32.923Z,10.80
2023-03-15T01:50:06.561Z,10.90
2023-03-15T01:52:38.390Z,10.90
2023-03-15T01:55:11.368Z,11.00
2023-03-15T01:57:56.184Z,11.00
2023-03-15T02:00:28.571Z,11.20
2023-03-15T02:03:08.560Z,11.20
2023-03-15T02:05:46.252Z,11.30
2023-03-15T02:08:21.894Z,11.40
2023-03-15T02:10:53.310Z,11.40
2023-03-15T02:13:27.335Z,11.30
2023-03-15T02:16:00.997Z,11.20
2023-03-15T02:18:37.478Z,11.20
2023-03-15T02:21:15.961Z,11.10
2023-03-15T02:23:49.050Z,11.00
2023-03-15T02:26:25.306Z,10.80
2023-03-15T02:28:56.200Z,10.60
2023-03-15T02:31:25.562Z,10.50
2023-03-15T02:33:56.384Z,10.40
2023-03-15T02:36:27.174Z,10.40
2023-03-15T02:38:56.745Z,10.40
2023-03-15T02:41:30.736Z,10.50
2023-03-15T02:44:05.134Z,10.50
2023-03-15T02:46:34.406Z,10.40
2023-03-15T02:49:03.816Z,10.30
2023-03-15T02:51:35.503Z,10.20
2023-03-15T02:54:03.891Z,10.10
2023-03-15T02:56:33.688Z,9.90
2023-03-15T02:59:05.243Z,9.90
2023-03-15T03:01:37.299Z,9.80
2023-03-15T03:04:05.840Z,9.80
2023-03-15T03:06:34.174Z,9.70
2023-03-15T03:09:04.293Z,9.80
2023-03-15T03:11:32.921Z,9.90
2023-03-15T03:14:01.302Z,9.90
2023-03-15T03:16:32.225Z,9.90
2023-03-15T03:19:01.646Z,9.90
2023-03-15T03:21:32.579Z,9.90
2023-03-15T03:24:01.115Z,9.90
2023-03-15T03:26:32.845Z,9.90
2023-03-15T03:29:02.113Z,10.00
2023-03-15T03:31:33.879Z,10.20
2023-03-15T03:34:03.438Z,10.20
2023-03-15T03:36:32.138Z,10.20
2023-03-15T03:39:00.457Z,10.20
2023-03-15T03:41:29.109Z,10.20
2023-03-15T03:43:57.886Z,10.40
2023-03-15T03:46:26.324Z,10.40
2023-03-15T03:48:56.354Z,10.50
2023-03-15T03:51:24.866Z,10.50
2023-03-15T03:53:53.322Z,10.50
2023-03-15T03:56:21.739Z,10.50
2023-03-15T03:58:50.080Z,10.50
2023-03-15T04:01:23.342Z,10.50
2023-03-15T04:03:55.542Z,10.40
2023-03-15T04:06:26.040Z,10.40
2023-03-15T04:08:54.860Z,10.50
2023-03-15T04:11:42.667Z,10.40
2023-03-15T04:14:12.228Z,10.30
2023-03-15T04:16:42.432Z,10.30
2023-03-15T04:19:14.402Z,10.40
2023-03-15T04:21:47.705Z,10.40
2023-03-15T04:24:25.025Z,10.60
2023-03-15T04:27:02.785Z,10.70
2023-03-15T04:29:45.067Z,10.80
2023-03-15T04:32:36.640Z,10.90
2023-03-15T04:35:29.929Z,10.90
2023-03-15T04:38:08.495Z,11.00
2023-03-15T04:40:49.005Z,11.00
2023-03-15T04:43:40.830Z,11.10
2023-03-15T04:46:27.770Z,11.10
2023-03-15T04:49:08.556Z,11.10
2023-03-15T04:51:58.592Z,11.20
2023-03-15T04:54:44.376Z,11.20
2023-03-15T04:57:31.470Z,11.20
2023-03-15T05:00:35.417Z,11.20
2023-03-15T05:03:10.825Z,11.10
2023-03-15T05:06:08.328Z,11.20
2023-03-15T05:08:38.704Z,11.20
2023-03-15T05:11:25.616Z,11.20
2023-03-15T05:14:08.057Z,11.30
2023-03-15T05:16:58.725Z,11.40
2023-03-15T05:19:46.269Z,11.40
2023-03-15T05:22:41.833Z,11.40
2023-03-15T05:25:39.007Z,11.30
2023-03-15T05:28:39.785Z,11.20
2023-03-15T05:31:26.888Z,11.20
2023-03-15T05:34:10.046Z,11.20
2023-03-15T05:37:01.252Z,11.30
2023-03-15T05:39:48.085Z,11.40
2023-03-15T05:42:44.048Z,11.40
2023-03-15T05:45:44.810Z,11.50
2023-03-15T05:48:27.748Z,11.50
2023-03-15T05:51:06.808Z,11.50
2023-03-15T05:54:11.146Z,11.60
2023-03-15T05:57:14.818Z,11.60
2023-03-15T06:00:05.212Z,11.50
2023-03-15T06:02:42.763Z,11.50
2023-03-15T06:05:40.583Z,11.40
2023-03-15T06:08:14.443Z,11.40
2023-03-15T06:10:47.221Z,11.40
2023-03-15T06:13:18.252Z,11.50
2023-03-15T06:15:49.525Z,11.50
2023-03-15T06:18:20.038Z,11.40
2023-03-15T06:20:50.738Z,11.40
2023-03-15T06:23:20.625Z,11.50
2023-03-15T06:25:49.394Z,11.40
2023-03-15T06:28:18.809Z,11.30
2023-03-15T06:30:55.238Z,11.30
2023-03-15T06:33:29.564Z,11.30
2023-03-15T06:35:58.131Z,11.30
2023-03-15T06:38:26.582Z,11.30
2023-03-15T06:40:58.512Z,11.30
2023-03-15T06:43:26.962Z,11.30
2023-03-15T06:45:58.828Z,11.40
2023-03-15T06:48:28.070Z,11.40
2023-03-15T06:50:56.703Z,11.50
2023-03-15T06:53:25.363Z,11.50
2023-03-15T06:55:53.808Z,11.50
2023-03-15T06:58:22.464Z,11.50
2023-03-15T07:00:51.607Z,11.50
2023-03-15T07:03:22.474Z,11.50
2023-03-15T07:05:52.675Z,11.60
2023-03-15T07:08:21.111Z,11.60
2023-03-15T07:10:50.498Z,11.70
2023-03-15T07:13:20.267Z,11.60
2023-03-15T07:15:53.545Z,11.60
2023-03-15T07:18:23.652Z,11.60
2023-03-15T07:20:57.800Z,11.70
2023-03-15T07:23:26.799Z,11.70
2023-03-15T07:25:55.876Z,11.80
2023-03-15T07:28:26.595Z,11.90
2023-03-15T07:30:56.830Z,11.90
2023-03-15T07:33:27.708Z,11.90
2023-03-15T07:35:56.476Z,11.90
2023-03-15T07:38:27.270Z,11.80
2023-03-15T07:40:56.116Z,11.60
2023-03-15T07:43:24.920Z,11.60
2023-03-15T07:46:07.806Z,11.50
2023-03-15T07:48:37.814Z,11.60
2023-03-15T07:51:06.940Z,11.70
2023-03-15T07:53:35.297Z,11.90
2023-03-15T07:56:03.756Z,12.10
2023-03-15T07:58:32.283Z,12.20
2023-03-15T08:01:00.685Z,12.30
2023-03-15T08:03:29.069Z,12.30
2023-03-15T08:05:58.921Z,12.50
2023-03-15T08:08:30.338Z,12.60
2023-03-15T08:10:59.737Z,12.70
2023-03-15T08:13:28.108Z,12.80
2023-03-15T08:15:56.667Z,12.90
2023-03-15T08:18:25.186Z,12.90
2023-03-15T08:20:53.627Z,13.00
2023-03-15T08:23:23.513Z,13.10
2023-03-15T08:25:52.106Z,13.20
2023-03-15T08:28:20.417Z,13.30
2023-03-15T08:30:48.825Z,13.30
2023-03-15T08:33:17.161Z,13.30
2023-03-15T08:35:45.635Z,13.40
2023-03-15T08:38:14.690Z,13.30
2023-03-15T08:40:44.586Z,13.10
2023-03-15T08:43:13.743Z,13.10
2023-03-15T08:45:59.585Z,13.10
2023-03-15T08:48:29.821Z,13.10
2023-03-15T08:51:02.482Z,13.10
2023-03-15T08:53:31.114Z,13.40
2023-03-15T08:56:01.178Z,13.60
2023-03-15T08:58:29.584Z,13.70
2023-03-15T09:00:58.061Z,13.60
2023-03-15T09:03:26.672Z,13.60
2023-03-15T09:05:58.170Z,13.50
2023-03-15T09:08:26.873Z,13.40
2023-03-15T09:10:56.505Z,13.50
2023-03-15T09:13:27.065Z,13.50
2023-03-15T09:15:56.440Z,13.60
2023-03-15T09:18:25.532Z,13.60
2023-03-15T09:20:53.939Z,13.70
2023-03-15T09:23:22.590Z,13.70
2023-03-15T09:25:50.937Z,13.70
2023-03-15T09:28:19.270Z,13.70
2023-03-15T09:30:49.058Z,13.70
2023-03-15T09:33:17.452Z,13.70
2023-03-15T09:35:45.814Z,13.70
2023-03-15T09:38:14.246Z,13.80
2023-03-15T09:40:46.173Z,13.80
2023-03-15T09:43:41.240Z,13.80
2023-03-15T09:46:26.016Z,13.80
2023-03-15T09:48:58.200Z,14.00
2023-03-15T09:51:37.668Z,13.90
2023-03-15T09:54:11.123Z,14.10
2023-03-15T09:56:45.748Z,14.20
2023-03-15T09:59:17.646Z,14.20
2023-03-15T10:01:49.962Z,14.10
2023-03-15T10:04:26.789Z,14.10
2023-03-15T10:06:56.938Z,13.90
2023-03-15T10:09:27.391Z,13.90
2023-03-15T10:12:04.792Z,13.90
2023-03-15T10:14:57.717Z,13.90
2023-03-15T10:17:37.315Z,14.00
2023-03-15T10:20:12.141Z,14.00
2023-03-15T10:22:47.290Z,14.10
2023-03-15T10:25:19.203Z,14.20
2023-03-15T10:27:53.115Z,14.20
2023-03-15T10:30:23.920Z,14.20
2023-03-15T10:32:58.207Z,14.10
2023-03-15T10:35:26.873Z,14.00
2023-03-15T10:37:55.694Z,13.90
2023-03-15T10:40:45.810Z,13.80
2023-03-15T10:43:18.683Z,13.60
2023-03-15T10:45:58.734Z,13.60
2023-03-15T10:48:29.119Z,13.50
2023-03-15T10:50:59.274Z,13.40
2023-03-15T10:53:27.887Z,13.30
2023-03-15T10:56:02.261Z,13.30
2023-03-15T10:58:41.767Z,13.40
2023-03-15T11:01:14.933Z,13.30
2023-03-15T11:03:45.541Z,13.20
2023-03-15T11:06:23.171Z,13.20
2023-03-15T11:08:51.566Z,13.10
2023-03-15T11:11:21.443Z,12.90
2023-03-15T11:14:01.229Z,12.70
2023-03-15T11:16:35.979Z,12.60
2023-03-15T11:19:15.205Z,12.50
2023-03-15T11:21:45.145Z,12.50
2023-03-15T11:24:24.369Z,12.40
2023-03-15T11:26:55.162Z,12.40
2023-03-15T11:29:26.740Z,12.40
2023-03-15T11:31:57.102Z,12.40
2023-03-15T11:34:38.259Z,12.40
2023-03-15T11:37:14.146Z,12.50
2023-03-15T11:39:47.716Z,12.50
2023-03-15T11:42:24.282Z,12.60
2023-03-15T11:44:56.612Z,12.60
2023-03-15T11:47:34.836Z,12.60
2023-03-15T11:50:05.412Z,12.40
2023-03-15T11:52:33.948Z,12.40
2023-03-15T11:55:05.089Z,12.40
2023-03-15T11:57:39.835Z,12.40
2023-03-15T12:00:28.111Z,12.40
2023-03-15T12:02:59.011Z,12.50
2023-03-15T12:05:49.726Z,12.50
2023-03-15T12:08:25.306Z,12.60
2023-03-15T12:10:54.421Z,12.80
2023-03-15T12:13:27.084Z,12.80
2023-03-15T12:15:55.800Z,12.70
2023-03-15T12:18:39.915Z,12.70
2023-03-15T12:21:14.293Z,12.50
2023-03-15T12:23:57.049Z,12.40
2023-03-15T12:26:28.890Z,12.40
2023-03-15T12:29:08.152Z,12.40
2023-03-15T12:31:55.569Z,12.40
2023-03-15T12:34:27.341Z,12.40
2023-03-15T12:37:04.174Z,12.30
2023-03-15T12:39:48.311Z,12.30
2023-03-15T12:42:50.120Z,12.30
2023-03-15T12:45:39.894Z,12.10
2023-03-15T12:48:25.431Z,12.00
2023-03-15T12:51:02.225Z,12.00
2023-03-15T12:53:44.788Z,12.00
2023-03-15T12:56:51.627Z,11.90
2023-03-15T12:59:31.836Z,11.90
2023-03-15T13:02:02.136Z,11.90
2023-03-15T13:04:31.621Z,11.90
2023-03-15T13:07:15.130Z,12.00
2023-03-15T13:10:11.452Z,11.90
2023-03-15T13:12:45.959Z,11.90
2023-03-15T13:15:20.633Z,11.90
2023-03-15T13:17:52.474Z,11.90
2023-03-15T13:20:39.678Z,11.90
2023-03-15T13:23:16.035Z,11.90
2023-03-15T13:25:55.827Z,11.90
2023-03-15T13:28:26.065Z,11.80
2023-03-15T13:30:55.635Z,11.90
2023-03-15T13:33:26.907Z,11.80
2023-03-15T13:35:58.710Z,11.70
2023-03-15T13:38:32.056Z,11.70
2023-03-15T13:41:03.839Z,11.60
2023-03-15T13:43:34.061Z,11.70
2023-03-15T13:46:02.858Z,11.70
2023-03-15T13:48:33.094Z,11.70
2023-03-15T13:51:06.296Z,11.70
2023-03-15T13:53:49.074Z,11.70
2023-03-15T13:56:22.714Z,11.70
2023-03-15T13:58:52.137Z,11.70
2023-03-15T14:01:23.237Z,11.60
2023-03-15T14:03:58.605Z,11.60
2023-03-15T14:06:28.025Z,11.60
2023-03-15T14:09:02.022Z,11.60
2023-03-15T14:11:38.402Z,11.60
2023-03-15T14:14:24.359Z,11.60
2023-03-15T14:17:07.045Z,11.60
2023-03-15T14:19:37.046Z,11.60
2023-03-15T14:22:15.833Z,11.60
2023-03-15T14:24:45.979Z,11.60
2023-03-15T14:27:21.365Z,11.50
2023-03-15T14:29:53.623Z,11.50
2023-03-15T14:32:29.158Z,11.50
2023-03-15T14:35:03.333Z,11.50
2023-03-15T14:37:36.838Z,11.50
2023-03-15T14:40:17.511Z,11.60
2023-03-15T14:42:47.743Z,11.60
2023-03-15T14:45:17.737Z,11.50
2023-03-15T14:47:56.678Z,11.50
2023-03-15T14:50:27.308Z,11.50
2023-03-15T14:52:57.732Z,11.50
2023-03-15T14:55:30.518Z,11.50
2023-03-15T14:58:01.034Z,11.60
2023-03-15T15:00:29.535Z,11.60
2023-03-15T15:02:59.437Z,11.60
2023-03-15T15:05:29.692Z,11.50
2023-03-15T15:08:03.664Z,11.50
2023-03-15T15:10:34.831Z,11.50
2023-03-15T15:13:07.400Z,11.50
2023-03-15T15:15:54.361Z,11.50
2023-03-15T15:18:24.528Z,11.60
2023-03-15T15:20:55.840Z,11.70
2023-03-15T15:23:28.821Z,11.70
2023-03-15T15:25:59.187Z,11.60
2023-03-15T15:28:36.702Z,11.60
2023-03-15T15:31:07.387Z,11.60
2023-03-15T15:33:36.650Z,11.60
2023-03-15T15:36:08.137Z,11.60
2023-03-15T15:38:39.135Z,11.70
2023-03-15T15:41:12.843Z,11.70
2023-03-15T15:43:43.235Z,11.70
2023-03-15T15:46:13.409Z,11.70
2023-03-15T15:48:41.998Z,11.80
2023-03-15T15:51:22.273Z,11.80
2023-03-15T15:53:53.534Z,11.90
2023-03-15T15:56:22.174Z,11.90
2023-03-15T15:58:52.094Z,11.90
2023-03-15T16:01:20.398Z,11.90
2023-03-15T16:03:48.846Z,11.80
2023-03-15T16:06:20.260Z,11.80
2023-03-15T16:08:50.820Z,11.80
2023-03-15T16:11:20.812Z,11.60
2023-03-15T16:13:54.034Z,11.50
2023-03-15T16:16:23.426Z,11.50
2023-03-15T16:18:51.738Z,11.40
2023-03-15T16:21:28.008Z,11.30
2023-03-15T16:24:00.429Z,11.30
2023-03-15T16:26:29.272Z,11.20
2023-03-15T16:28:59.024Z,11.10
2023-03-15T16:31:28.457Z,11.10
2023-03-15T16:33:57.053Z,11.10
2023-03-15T16:36:28.597Z,11.00
2023-03-15T16:38:57.465Z,11.00
2023-03-15T16:41:26.581Z,10.90
2023-03-15T16:43:54.974Z,10.80
2023-03-15T16:46:24.739Z,10.80
2023-03-15T16:48:53.059Z,10.80
2023-03-15T16:51:21.460Z,10.80
2023-03-15T16:53:49.784Z,10.90
2023-03-15T16:56:18.983Z,10.90
2023-03-15T16:58:51.192Z,11.00
2023-03-15T17:01:19.938Z,11.00
2023-03-15T17:03:49.829Z,11.00
2023-03-15T17:06:23.389Z,11.10
2023-03-15T17:08:53.868Z,11.00
2023-03-15T17:11:22.402Z,11.00
2023-03-15T17:13:50.856Z,11.00
2023-03-15T17:16:19.369Z,11.00
2023-03-15T17:18:49.633Z,10.90
2023-03-15T17:21:20.619Z,10.90
2023-03-15T17:23:50.406Z,10.80
2023-03-15T17:26:20.507Z,10.80
2023-03-15T17:28:49.521Z,10.80
2023-03-15T17:31:24.882Z,10.80
2023-03-15T17:33:55.531Z,10.70
2023-03-15T17:36:25.404Z,10.70
2023-03-15T17:38:55.244Z,10.70
2023-03-15T17:41:26.910Z,10.60
2023-03-15T17:43:55.403Z,10.60
2023-03-15T17:46:28.307Z,10.70
2023-03-15T17:48:58.507Z,10.60
2023-03-15T17:51:30.334Z,10.60
2023-03-15T17:53:59.573Z,10.60
2023-03-15T17:56:28.405Z,10.70
2023-03-15T17:58:56.984Z,10.60
2023-03-15T18:01:28.281Z,10.60
2023-03-15T18:03:58.709Z,10.60
2023-03-15T18:06:27.120Z,10.60
2023-03-15T18:08:55.468Z,10.50
2023-03-15T18:11:27.621Z,10.50
2023-03-15T18:13:56.693Z,10.50
2023-03-15T18:16:25.370Z,10.50
2023-03-15T18:18:53.808Z,10.50
2023-03-15T18:21:26.413Z,10.40
2023-03-15T18:23:55.389Z,10.50
2023-03-15T18:26:23.959Z,10.40
2023-03-15T18:28:52.590Z,10.40
2023-03-15T18:31:23.737Z,10.40
2023-03-15T18:33:53.608Z,10.30
2023-03-15T18:36:23.333Z,10.20
2023-03-15T18:38:51.819Z,10.20
2023-03-15T18:41:22.302Z,10.20
2023-03-15T18:43:51.699Z,10.20
2023-03-15T18:46:21.597Z,10.20
2023-03-15T18:48:50.084Z,10.20
2023-03-15T18:51:18.753Z,10.20
2023-03-15T18:53:48.448Z,10.20
2023-03-15T18:56:20.454Z,10.20
2023-03-15T18:58:50.211Z,10.20
2023-03-15T19:01:19.941Z,10.20
2023-03-15T19:03:48.382Z,10.20
2023-03-15T19:06:16.850Z,10.10
2023-03-15T19:08:45.334Z,10.10
2023-03-15T19:11:15.057Z,10.00
2023-03-15T19:13:43.552Z,9.90
2023-03-15T19:16:11.859Z,9.90
2023-03-15T19:18:42.736Z,9.90
2023-03-15T19:21:11.344Z,9.80
2023-03-15T19:23:39.651Z,9.80
2023-03-15T19:26:07.986Z,9.70
2023-03-15T19:28:37.965Z,9.70
2023-03-15T19:31:06.688Z,9.70
2023-03-15T19:33:35.481Z,9.60
2023-03-15T19:36:03.995Z,9.60
2023-03-15T19:38:33.143Z,9.50
2023-03-15T19:41:04.969Z,9.40
2023-03-15T19:43:33.961Z,9.40
2023-03-15T19:46:05.354Z,9.40
2023-03-15T19:48:33.779Z,9.50
2023-03-15T19:51:02.655Z,9.50
2023-03-15T19:53:31.388Z,9.50
2023-03-15T19:55:59.836Z,9.50
2023-03-15T19:58:28.247Z,9.50
2023-03-15T20:00:57.476Z,9.60
2023-03-15T20:03:27.422Z,9.70
2023-03-15T20:05:55.753Z,9.80
2023-03-15T20:08:26.218Z,9.80
2023-03-15T20:11:01.032Z,9.80
2023-03-15T20:13:29.478Z,9.70
2023-03-15T20:15:58.332Z,9.60
2023-03-15T20:18:29.159Z,9.60
2023-03-15T20:20:57.638Z,9.50
2023-03-15T20:23:26.200Z,9.50
2023-03-15T20:26:03.825Z,9.40
2023-03-15T20:28:32.198Z,9.50
2023-03-15T20:31:00.605Z,9.40
2023-03-15T20:33:31.331Z,9.40
2023-03-15T20:35:59.810Z,9.20
2023-03-15T20:38:29.336Z,9.10
2023-03-15T20:40:59.552Z,9.10
2023-03-15T20:43:28.557Z,9.10
2023-03-15T20:45:59.816Z,9.10
2023-03-15T20:48:29.900Z,9.10
2023-03-15T20:50:58.980Z,9.00
2023-03-15T20:53:27.565Z,9.10
2023-03-15T20:55:55.921Z,9.10
2023-03-15T20:58:24.307Z,9.10
2023-03-15T21:00:52.968Z,9.30
2023-03-15T21:03:21.441Z,9.30
2023-03-15T21:05:51.204Z,9.30
2023-03-15T21:08:19.574Z,9.30
2023-03-15T21:10:48.018Z,9.20
2023-03-15T21:13:17.542Z,9.20
2023-03-15T21:15:46.953Z,9.20
2023-03-15T21:18:15.648Z,9.20
2023-03-15T21:20:44.429Z,9.30
2023-03-15T21:23:14.158Z,9.20
2023-03-15T21:25:42.602Z,9.20
2023-03-15T21:28:10.968Z,9.30
2023-03-15T21:30:40.422Z,9.30
2023-03-15T21:33:08.785Z,9.30
2023-03-15T21:35:37.237Z,9.30
2023-03-15T21:38:05.648Z,9.30
2023-03-15T21:40:35.411Z,9.10
2023-03-15T21:43:03.733Z,9.10
2023-03-15T21:45:32.164Z,9.20
2023-03-15T21:48:00.703Z,9.10
2023-03-15T21:50:29.124Z,9.10
2023-03-15T21:52:57.559Z,9.10
2023-03-15T21:55:26.031Z,9.10
2023-03-15T21:57:56.416Z,9.00
2023-03-15T22:00:25.427Z,9.00
2023-03-15T22:02:55.802Z,9.00
2023-03-15T22:05:25.041Z,9.10
2023-03-15T22:07:53.383Z,9.20
2023-03-15T22:10:22.984Z,9.40
2023-03-15T22:12:54.044Z,9.50
2023-03-15T22:15:24.048Z,9.60
2023-03-15T22:17:52.702Z,9.60
2023-03-15T22:20:21.233Z,9.60
2023-03-15T22:22:50.240Z,9.70
2023-03-15T22:25:18.906Z,9.70
2023-03-15T22:27:47.270Z,9.70
2023-03-15T22:30:17.749Z,9.60
2023-03-15T22:32:47.569Z,9.50
2023-03-15T22:35:18.209Z,9.50
2023-03-15T22:37:47.007Z,9.50
2023-03-15T22:40:15.630Z,9.60
2023-03-15T22:42:46.974Z,9.40
2023-03-15T22:45:15.370Z,9.40
2023-03-15T22:47:44.234Z,9.40
2023-03-15T22:50:15.387Z,9.50
2023-03-15T22:52:44.158Z,9.50
2023-03-15T22:55:13.220Z,9.60
2023-03-15T22:57:41.773Z,9.60
2023-03-15T23:00:14.104Z,9.50
2023-03-15T23:02:43.060Z,9.60
2023-03-15T23:05:13.998Z,9.60
2023-03-15T23:07:43.255Z,9.60
2023-03-15T23:10:13.070Z,9.50
2023-03-15T23:12:41.874Z,9.60
2023-03-15T23:15:12.204Z,9.50
2023-03-15T23:17:47.025Z,9.40
2023-03-15T23:20:19.006Z,9.40
2023-03-15T23:22:48.171Z,9.50
2023-03-15T23:25:19.645Z,9.50
2023-03-15T23:27:48.654Z,9.50
2023-03-15T23:30:17.358Z,9.50
2023-03-15T23:32:45.979Z,9.40
2023-03-15T23:35:15.006Z,9.30
2023-03-15T23:37:44.848Z,9.30
2023-03-15T23:40:15.699Z,9.30
2023-03-15T23:42:45.115Z,9.40
2023-03-15T23:45:15.348Z,9.40
2023-03-15T23:47:43.959Z,9.30
2023-03-15T23:50:13.867Z,9.30
2023-03-15T23:52:42.445Z,9.20
2023-03-15T23:55:12.728Z,9.20
2023-03-15T23:57:41.509Z,9.20
